Time;durP1;ratioP1;P1;durP2;ratioP2;P2;SDS_P1;SDS_P2;PMS_P1;PMS_P2;Temp;Humidity;BMP_temperature;BMP_pressure;BME280_temperature;BME280_humidity;BME280_pressure;Samples;Min_cycle;Max_cycle;Signal;HPM_P1;HPM_P2
2022/04/01 00:01:58;;;;;;;25.85;7.00;;;;;;;16.61;37.60;93352.69;4968259;28;20204;-67
2022/04/01 00:04:24;;;;;;;22.83;5.85;;;;;;;16.30;40.68;93373.19;4966462;28;20229;-67
2022/04/01 00:06:49;;;;;;;13.02;4.13;;;;;;;16.09;42.66;93349.81;4961028;28;20221;-67
2022/04/01 00:09:14;;;;;;;14.52;3.72;;;;;;;15.96;43.24;93372.03;4957177;28;20224;-68
2022/04/01 00:11:40;;;;;;;10.45;2.90;;;;;;;15.79;44.03;93342.69;4963045;28;20230;-67
2022/04/01 00:14:05;;;;;;;14.18;3.30;;;;;;;15.65;44.66;93365.06;4963668;28;20291;-68
2022/04/01 00:16:31;;;;;;;10.75;3.00;;;;;;;15.53;45.03;93357.06;4966785;28;20216;-68
2022/04/01 00:18:57;;;;;;;8.93;2.80;;;;;;;15.51;44.99;93369.72;4960462;28;20235;-68
2022/04/01 00:21:23;;;;;;;11.73;2.70;;;;;;;15.41;43.62;93325.22;4974120;28;20233;-67
2022/04/01 00:23:49;;;;;;;8.15;2.55;;;;;;;15.48;45.05;93308.44;4962687;28;20243;-68
2022/04/01 00:26:14;;;;;;;10.18;2.70;;;;;;;15.34;45.70;93329.81;4958581;28;20208;-68
2022/04/01 00:28:40;;;;;;;7.85;2.15;;;;;;;15.22;45.95;93339.50;4959707;28;20251;-68
2022/04/01 00:31:05;;;;;;;5.90;2.15;;;;;;;15.21;46.20;93329.97;4956301;28;20238;-67
2022/04/01 00:33:31;;;;;;;7.18;2.45;;;;;;;15.05;45.66;93322.56;4963657;28;20231;-67
2022/04/01 00:35:57;;;;;;;6.85;2.38;;;;;;;15.00;46.25;93312.66;4967073;28;20246;-67
2022/04/01 00:38:23;;;;;;;7.68;2.70;;;;;;;14.96;46.75;93325.50;4959277;28;20224;-67
2022/04/01 00:40:51;;;;;;;5.57;2.40;;;;;;;14.92;47.01;93326.19;4953354;28;20240;-67
2022/04/01 00:43:24;;;;;;;4.68;1.95;;;;;;;14.90;47.02;93322.94;4987894;28;20221;-67
2022/04/01 00:45:50;;;;;;;4.68;1.55;;;;;;;14.87;47.44;93312.81;4960403;28;20221;-67
2022/04/01 00:48:16;;;;;;;3.50;1.55;;;;;;;14.86;47.22;93349.06;4987764;28;20229;-67
2022/04/01 00:50:42;;;;;;;3.63;1.48;;;;;;;14.76;47.76;93327.56;4960865;28;20319;-67
2022/04/01 00:53:07;;;;;;;5.05;1.48;;;;;;;14.69;48.06;93350.63;4967917;28;20304;-67
2022/04/01 00:55:33;;;;;;;6.22;1.90;;;;;;;14.72;47.58;93350.19;4963422;28;20212;-68
2022/04/01 00:57:59;;;;;;;4.32;1.73;;;;;;;14.65;47.92;93346.78;4953168;28;20216;-67
2022/04/01 01:00:25;;;;;;;5.97;1.77;;;;;;;14.69;48.13;93342.69;4956459;28;20241;-68
2022/04/01 01:02:51;;;;;;;23.23;6.40;;;;;;;14.78;45.63;93339.56;4988635;28;20236;-68
2022/04/01 01:05:16;;;;;;;25.30;6.32;;;;;;;14.86;45.38;93330.53;4962429;28;20211;-68
2022/04/01 01:07:42;;;;;;;35.28;9.27;;;;;;;15.37;41.51;93333.81;4963134;28;20200;-67
2022/04/01 01:10:10;;;;;;;41.10;9.43;;;;;;;15.49;41.12;93332.06;4955461;28;20257;-66
2022/04/01 01:12:37;;;;;;;41.65;9.63;;;;;;;15.46;41.53;93329.84;4963776;28;20232;-66
2022/04/01 01:15:14;;;;;;;38.95;9.52;;;;;;;15.48;41.58;93340.25;4986369;28;20266;-66
2022/04/01 01:17:40;;;;;;;34.10;9.85;;;;;;;15.53;41.36;93348.28;4969285;28;20252;-68
2022/04/01 01:20:12;;;;;;;40.30;10.35;;;;;;;15.66;40.86;93338.38;4959016;28;20227;-66
2022/04/01 01:22:57;;;;;;;45.85;10.60;;;;;;;15.77;40.38;93336.81;4962250;28;20216;-66
2022/04/01 01:25:23;;;;;;;42.75;9.38;;;;;;;15.73;40.53;93332.19;4955013;28;20306;-69
2022/04/01 01:27:48;;;;;;;53.70;11.10;;;;;;;15.70;40.99;93338.75;4960145;28;20228;-66
2022/04/01 01:30:14;;;;;;;47.30;10.40;;;;;;;15.81;40.55;93335.31;4955752;28;20333;-66
2022/04/01 01:32:39;;;;;;;43.75;10.60;;;;;;;15.78;40.78;93319.88;4961806;28;20236;-66
2022/04/01 01:35:08;;;;;;;50.38;10.88;;;;;;;15.74;41.02;93316.06;4958757;28;20226;-67
2022/04/01 01:37:33;;;;;;;43.53;10.63;;;;;;;15.73;41.06;93311.78;4958897;28;20216;-67
2022/04/01 01:39:59;;;;;;;39.17;11.38;;;;;;;15.77;41.09;93306.84;4957230;28;20235;-67
2022/04/01 01:42:24;;;;;;;45.35;10.75;;;;;;;15.79;40.93;93310.88;4953932;28;20316;-67
2022/04/01 01:44:50;;;;;;;39.35;10.15;;;;;;;15.68;41.15;93303.69;4964868;28;20229;-67
2022/04/01 01:47:15;;;;;;;49.50;11.00;;;;;;;15.76;40.53;93300.75;4956861;28;20212;-67
2022/04/01 01:54:42;;;;;;;43.35;12.00;;;;;;;15.74;40.75;93292.19;4959932;28;20291;-67
2022/04/01 01:55:11;;;;;;;50.67;11.70;;;;;;;15.79;40.26;93284.38;4951919;28;20271;-67
2022/04/01 01:57:36;;;;;;;49.88;10.88;;;;;;;15.73;40.82;93284.50;4962681;28;20249;-67
2022/04/01 02:00:10;;;;;;;50.55;10.85;;;;;;;15.82;40.16;93273.34;4985654;28;20240;-67
2022/04/01 02:02:39;;;;;;;50.50;11.25;;;;;;;15.77;40.07;93277.69;4953014;28;20654;-67
2022/04/01 02:05:07;;;;;;;51.65;12.32;;;;;;;15.70;40.13;93267.19;4959571;28;20208;-68
2022/04/01 02:07:33;;;;;;;53.83;12.50;;;;;;;15.93;39.23;93281.53;4962894;28;20288;-67
2022/04/01 02:09:59;;;;;;;50.75;10.98;;;;;;;15.88;39.81;93269.00;4961858;28;20229;-68
2022/04/01 02:12:24;;;;;;;43.33;11.27;;;;;;;15.81;40.33;93263.78;4961622;28;20228;-67
2022/04/01 02:14:50;;;;;;;46.08;10.77;;;;;;;15.79;40.26;93263.19;4958705;28;20224;-67
2022/04/01 02:17:15;;;;;;;48.92;11.40;;;;;;;15.83;40.19;93251.13;4954397;28;20216;-67
2022/04/01 02:19:41;;;;;;;49.15;11.00;;;;;;;15.76;40.89;93241.63;4960205;28;20213;-69
2022/04/01 02:22:07;;;;;;;47.17;12.23;;;;;;;15.70;40.81;93231.97;4958221;28;20314;-66
2022/04/01 02:24:32;;;;;;;53.75;12.15;;;;;;;15.72;40.51;93228.03;4959354;28;20517;-67
2022/04/01 02:26:59;;;;;;;48.70;11.25;;;;;;;15.70;40.92;93213.41;4954104;28;20220;-67
2022/04/01 02:29:25;;;;;;;47.03;11.48;;;;;;;15.65;40.49;93193.66;4990223;28;20224;-66
2022/04/01 02:31:51;;;;;;;42.83;11.57;;;;;;;15.73;40.50;93199.69;4958620;28;20238;-67
2022/04/01 02:34:17;;;;;;;58.40;11.63;;;;;;;15.76;40.30;93197.41;4955822;28;20761;-67
2022/04/01 02:36:43;;;;;;;46.83;12.55;;;;;;;15.75;39.94;93209.03;4965715;28;20228;-66
2022/04/01 02:39:09;;;;;;;50.60;11.38;;;;;;;15.72;40.02;93198.91;4963812;28;20236;-68
2022/04/01 02:41:35;;;;;;;63.05;13.43;;;;;;;15.90;38.89;93173.34;4954986;28;20267;-69
2022/04/01 02:44:12;;;;;;;61.65;13.68;;;;;;;15.83;39.23;93173.44;4957152;28;20235;-69
2022/04/01 02:46:43;;;;;;;50.03;11.95;;;;;;;15.87;39.08;93177.25;4959014;28;20208;-69
2022/04/01 02:49:15;;;;;;;43.42;11.80;;;;;;;15.84;39.15;93164.47;4956135;28;20220;-68
2022/04/01 02:51:44;;;;;;;50.83;11.80;;;;;;;15.78;39.50;93166.19;4956936;28;20266;-69
2022/04/01 02:54:10;;;;;;;52.70;12.35;;;;;;;15.77;39.42;93179.66;4962004;28;20220;-69
2022/04/01 02:56:37;;;;;;;52.00;12.25;;;;;;;15.76;39.26;93189.44;4955141;28;20673;-69
2022/04/01 02:59:08;;;;;;;54.60;12.23;;;;;;;15.92;39.14;93160.66;4956246;28;20196;-68
2022/04/01 03:01:38;;;;;;;56.70;12.55;;;;;;;15.91;39.06;93180.25;4961238;28;20221;-67
2022/04/01 03:04:10;;;;;;;51.22;12.57;;;;;;;15.94;38.78;93167.34;4953778;28;20514;-68
2022/04/01 03:06:43;;;;;;;60.92;14.13;;;;;;;15.95;38.73;93176.09;4955790;28;20265;-67
2022/04/01 03:09:09;;;;;;;58.30;13.88;;;;;;;15.98;38.40;93159.72;4960748;28;20259;-66
2022/04/01 03:11:38;;;;;;;54.70;12.98;;;;;;;15.90;38.56;93154.78;4958504;28;20227;-66
2022/04/01 03:14:06;;;;;;;65.82;13.38;;;;;;;15.97;38.40;93158.13;4957703;28;20211;-66
2022/04/01 03:16:32;;;;;;;51.30;13.20;;;;;;;15.95;38.84;93179.56;4953710;28;20330;-65
2022/04/01 03:18:59;;;;;;;59.40;13.68;;;;;;;16.01;38.36;93167.22;4963963;28;20280;-66
2022/04/01 03:21:25;;;;;;;55.33;12.70;;;;;;;15.98;38.52;93152.59;4965336;28;20362;-66
2022/04/01 03:23:52;;;;;;;46.10;11.48;;;;;;;15.90;38.79;93147.63;4964358;28;20235;-66
2022/04/01 03:26:18;;;;;;;55.55;11.70;;;;;;;15.90;38.54;93166.19;4964008;28;20216;-66
2022/04/01 03:28:44;;;;;;;57.38;13.10;;;;;;;15.92;38.35;93171.25;4955831;28;20623;-66
2022/04/01 03:31:12;;;;;;;56.22;13.00;;;;;;;16.01;37.84;93160.09;4954552;28;20282;-66
2022/04/01 03:33:38;;;;;;;53.97;14.73;;;;;;;16.00;37.46;93149.72;4954351;28;20233;-67
2022/04/01 03:36:04;;;;;;;61.60;13.20;;;;;;;16.07;37.17;93140.63;4955435;28;20228;-66
2022/04/01 03:38:31;;;;;;;52.38;13.38;;;;;;;16.04;37.21;93148.22;4951700;28;20228;-67
2022/04/01 03:40:57;;;;;;;61.25;13.95;;;;;;;16.16;36.84;93142.91;4951805;28;20217;-67
2022/04/01 03:43:25;;;;;;;61.40;14.13;;;;;;;16.21;36.63;93175.66;4961755;28;20219;-67
2022/04/01 03:45:52;;;;;;;59.72;13.25;;;;;;;16.11;37.02;93175.41;4958109;28;20315;-66
2022/04/01 03:48:28;;;;;;;55.72;12.90;;;;;;;16.05;37.28;93184.28;4962815;28;20247;-67
2022/04/01 03:50:58;;;;;;;55.78;13.82;;;;;;;16.01;37.49;93193.72;4953277;28;20228;-67
2022/04/01 03:53:28;;;;;;;71.50;15.07;;;;;;;16.01;37.05;93181.31;4952141;28;20225;-66
2022/04/01 03:55:55;;;;;;;54.97;12.98;;;;;;;16.07;37.42;93184.88;4971582;28;20276;-67
2022/04/01 03:58:28;;;;;;;48.13;11.13;;;;;;;15.78;39.65;93207.78;4954644;28;20221;-69
2022/04/01 04:00:54;;;;;;;38.70;10.38;;;;;;;15.60;41.10;93212.06;4959512;28;20231;-67
2022/04/01 04:03:20;;;;;;;47.25;12.60;;;;;;;15.66;38.48;93186.50;4962339;28;20279;-68
2022/04/01 04:05:47;;;;;;;63.35;13.13;;;;;;;15.68;38.52;93181.00;4955078;28;20217;-68
2022/04/01 04:08:18;;;;;;;54.97;12.90;;;;;;;15.66;39.09;93187.34;4941292;28;20205;-67
2022/04/01 04:10:46;;;;;;;61.38;12.48;;;;;;;15.63;39.40;93166.56;4940434;29;20244;-67
2022/04/01 04:13:12;;;;;;;45.17;9.90;;;;;;;15.38;41.88;93187.16;4956718;28;20216;-67
2022/04/01 04:16:00;;;;;;;42.92;9.82;;;;;;;15.38;41.35;93172.06;4957776;28;20240;-68
2022/04/01 04:18:34;;;;;;;43.53;10.57;;;;;;;15.22;43.36;93193.88;4964145;28;20272;-67
2022/04/01 04:21:11;;;;;;;39.03;10.70;;;;;;;15.09;43.87;93186.13;4963853;28;20262;-67
2022/04/01 04:23:49;;;;;;;37.90;9.82;;;;;;;14.99;44.89;93200.72;4959456;28;20331;-67
2022/04/01 04:26:22;;;;;;;43.95;10.32;;;;;;;14.88;45.46;93163.59;4991593;28;20297;-68
2022/04/01 04:28:50;;;;;;;46.63;11.15;;;;;;;14.89;45.30;93187.19;4956959;28;20232;-66
2022/04/01 04:31:26;;;;;;;34.80;8.93;;;;;;;14.85;45.71;93180.72;4971613;28;20341;-67
2022/04/01 04:33:55;;;;;;;51.28;10.88;;;;;;;14.78;45.85;93193.22;4953466;28;20231;-66
2022/04/01 04:36:30;;;;;;;37.28;9.80;;;;;;;14.65;46.24;93188.91;4961251;28;20243;-66
2022/04/01 04:38:56;;;;;;;36.08;9.57;;;;;;;14.67;46.62;93186.03;4953807;28;20696;-66
2022/04/01 04:41:22;;;;;;;40.85;8.88;;;;;;;14.68;46.52;93209.63;4950292;28;20288;-67
2022/04/01 04:43:50;;;;;;;41.22;10.73;;;;;;;14.67;46.75;93194.75;4956270;28;20212;-66
2022/04/01 04:46:17;;;;;;;46.45;11.82;;;;;;;14.58;46.87;93200.59;4954587;28;20224;-66
2022/04/01 04:48:45;;;;;;;39.65;10.63;;;;;;;14.64;46.65;93204.97;4968452;28;20890;-66
2022/04/01 04:51:10;;;;;;;37.05;10.15;;;;;;;14.63;46.46;93206.03;4950275;28;20254;-66
2022/04/01 04:53:38;;;;;;;46.22;10.73;;;;;;;14.66;46.56;93181.78;4960586;28;20237;-66
2022/04/01 04:56:04;;;;;;;43.45;10.07;;;;;;;14.52;47.27;93207.53;4992258;28;20298;-66
2022/04/01 04:58:43;;;;;;;47.17;11.77;;;;;;;14.48;47.35;93196.56;4960832;28;20215;-66
2022/04/01 05:01:14;;;;;;;33.03;10.52;;;;;;;14.58;47.20;93204.03;4953736;28;20323;-66
2022/04/01 05:04:07;;;;;;;42.40;11.25;;;;;;;14.58;47.35;93204.03;4953789;28;20228;-66
2022/04/01 05:06:42;;;;;;;46.75;11.23;;;;;;;14.48;47.89;93195.75;4959027;28;20227;-65
2022/04/01 05:09:31;;;;;;;40.17;10.52;;;;;;;14.52;47.80;93215.47;4958373;28;20263;-65
2022/04/01 05:12:12;;;;;;;52.97;12.38;;;;;;;14.53;47.56;93186.16;4955794;28;20260;-64
2022/04/01 05:14:53;;;;;;;42.17;10.48;;;;;;;14.57;47.61;93186.56;4992431;28;20316;-66
2022/04/01 05:17:26;;;;;;;41.38;10.50;;;;;;;14.54;46.79;93179.88;4956132;28;20205;-67
2022/04/01 05:20:00;;;;;;;49.13;10.32;;;;;;;14.53;46.92;93169.50;4955290;28;20271;-67
2022/04/01 05:23:01;;;;;;;41.92;10.02;;;;;;;14.48;46.94;93196.56;4985652;28;20306;-67
2022/04/01 05:25:30;;;;;;;44.95;11.35;;;;;;;14.61;46.57;93177.13;4953206;28;20314;-67
2022/04/01 05:28:01;;;;;;;41.60;10.18;;;;;;;14.62;46.28;93162.06;4981572;28;20227;-66
2022/04/01 05:30:33;;;;;;;40.22;10.65;;;;;;;14.61;46.18;93181.63;4964111;28;20275;-66
2022/04/01 05:33:02;;;;;;;51.60;10.10;;;;;;;14.66;46.22;93173.84;4960118;28;20228;-66
2022/04/01 05:35:51;;;;;;;43.28;10.75;;;;;;;14.63;46.11;93164.50;4984544;28;20247;-66
2022/04/01 05:38:21;;;;;;;43.47;10.23;;;;;;;14.56;46.29;93177.78;4964066;28;20585;-67
2022/04/01 05:40:50;;;;;;;42.22;10.68;;;;;;;14.54;46.26;93171.94;4958231;28;20215;-66
2022/04/01 05:43:16;;;;;;;52.22;11.10;;;;;;;14.48;46.40;93180.69;4980811;28;20219;-66
2022/04/01 05:45:44;;;;;;;62.45;10.77;;;;;;;14.61;46.47;93176.34;4963364;28;20351;-66
2022/04/01 05:48:11;;;;;;;46.65;10.05;;;;;;;14.64;46.13;93168.75;4967697;28;20235;-66
2022/04/01 05:50:37;;;;;;;46.63;10.52;;;;;;;14.59;46.39;93162.50;4955647;28;20231;-68
2022/04/01 05:53:05;;;;;;;39.70;9.63;;;;;;;14.60;46.49;93170.25;4956218;28;20423;-70
2022/04/01 05:55:32;;;;;;;38.38;10.25;;;;;;;14.63;46.28;93172.44;4981701;28;20239;-66
2022/04/01 05:57:58;;;;;;;43.65;10.18;;;;;;;14.72;46.24;93149.94;4966382;28;20235;-67
2022/04/01 06:00:24;;;;;;;46.00;10.45;;;;;;;14.60;46.81;93156.22;4964174;28;20722;-67
2022/04/01 06:03:18;;;;;;;32.85;9.35;;;;;;;14.59;46.61;93178.38;4965493;28;20224;-67
2022/04/01 06:05:56;;;;;;;47.08;11.45;;;;;;;14.74;46.14;93157.66;4958323;28;20243;-66
2022/04/01 06:08:56;;;;;;;42.90;11.20;;;;;;;14.78;46.02;93141.13;4953681;28;20283;-68
2022/04/01 06:11:49;;;;;;;44.08;11.50;;;;;;;14.86;45.66;93147.13;4970248;28;20238;-66
2022/04/01 06:14:35;;;;;;;41.10;10.85;;;;;;;14.87;45.76;93169.91;4971304;28;20215;-66
2022/04/01 06:17:15;;;;;;;40.30;11.43;;;;;;;14.91;45.77;93161.28;4950186;28;20211;-66
2022/04/01 06:19:44;;;;;;;39.75;10.05;;;;;;;14.97;45.73;93176.28;4984894;28;20224;-66
2022/04/01 06:22:18;;;;;;;43.85;11.57;;;;;;;15.08;45.29;93181.88;4970297;28;20307;-66
2022/04/01 06:24:44;;;;;;;47.58;11.27;;;;;;;15.19;45.24;93163.38;4957634;28;20244;-67
2022/04/01 06:27:13;;;;;;;42.55;10.73;;;;;;;15.32;45.22;93188.84;4956599;28;20228;-67
2022/04/01 06:29:41;;;;;;;38.67;10.23;;;;;;;15.41;44.34;93168.16;4967238;28;20254;-66
2022/04/01 06:32:32;;;;;;;47.55;10.98;;;;;;;15.55;44.30;93166.09;4961548;28;20250;-68
2022/04/01 06:35:04;;;;;;;39.45;10.02;;;;;;;15.69;43.91;93186.13;4984241;28;20323;-65
2022/04/01 06:37:34;;;;;;;48.85;10.80;;;;;;;15.79;43.74;93201.44;4951153;28;20266;-65
2022/04/01 06:40:05;;;;;;;44.65;10.50;;;;;;;15.81;43.75;93207.31;4951765;28;20232;-65
2022/04/01 06:42:37;;;;;;;42.65;10.88;;;;;;;15.95;43.08;93179.56;4954153;28;20227;-64
2022/04/01 06:45:03;;;;;;;44.58;10.32;;;;;;;16.03;42.71;93152.69;4956465;28;20227;-65
2022/04/01 06:47:29;;;;;;;44.47;11.13;;;;;;;16.13;42.74;93197.22;4950487;28;20223;-67
2022/04/01 06:49:54;;;;;;;40.45;10.93;;;;;;;16.28;42.91;93178.19;4951156;28;20201;-66
2022/04/01 06:52:20;;;;;;;48.05;11.40;;;;;;;16.28;42.87;93172.91;4954286;28;20330;-66
2022/04/01 06:54:46;;;;;;;41.97;10.55;;;;;;;16.25;42.82;93197.19;4981388;28;20212;-66
2022/04/01 06:57:12;;;;;;;45.50;11.43;;;;;;;16.36;42.58;93172.53;4958044;28;20268;-64
2022/04/01 06:59:38;;;;;;;48.38;10.73;;;;;;;16.34;42.19;93195.81;4949003;28;20248;-66
2022/04/01 07:02:03;;;;;;;46.20;10.88;;;;;;;16.40;42.41;93188.78;4949382;28;20205;-66
2022/04/01 07:04:29;;;;;;;45.25;10.40;;;;;;;16.56;41.97;93193.38;4957437;28;20270;-65
2022/04/01 07:06:59;;;;;;;37.03;10.05;;;;;;;16.57;41.31;93189.69;4953687;28;20212;-65
2022/04/01 07:09:25;;;;;;;42.08;11.15;;;;;;;16.61;41.37;93179.41;4955799;28;20239;-66
2022/04/01 07:11:50;;;;;;;37.35;10.77;;;;;;;16.76;41.34;93188.50;4954685;28;20237;-65
2022/04/01 07:14:16;;;;;;;42.33;11.23;;;;;;;16.90;40.84;93175.00;4956098;28;20212;-66
2022/04/01 07:16:41;;;;;;;44.83;10.35;;;;;;;16.88;41.01;93185.03;4965096;28;20242;-66
2022/04/01 07:19:07;;;;;;;50.47;10.93;;;;;;;16.94;40.93;93176.13;4957173;28;20233;-66
2022/04/01 07:21:33;;;;;;;45.50;10.50;;;;;;;17.01;40.77;93187.44;4960164;28;20315;-67
2022/04/01 07:24:00;;;;;;;48.03;12.30;;;;;;;17.07;40.63;93194.44;4959166;28;20303;-66
2022/04/01 07:26:26;;;;;;;47.97;12.23;;;;;;;17.18;39.86;93182.97;4952744;28;20314;-64
2022/04/01 07:28:52;;;;;;;41.45;12.57;;;;;;;17.32;39.86;93159.59;4955200;28;20211;-65
2022/04/01 07:34:02;;;;;;;44.20;11.60;;;;;;;17.46;39.61;93168.06;4959282;28;20303;-65
2022/04/01 07:36:27;;;;;;;46.20;11.43;;;;;;;17.46;39.08;93197.31;4953954;28;20228;-65
2022/04/01 07:38:53;;;;;;;38.72;10.88;;;;;;;17.44;39.10;93146.25;4957333;28;20235;-66
2022/04/01 07:41:18;;;;;;;58.58;11.65;;;;;;;17.47;39.86;93177.66;4952867;28;20212;-65
2022/04/01 07:43:43;;;;;;;51.10;11.70;;;;;;;17.61;38.85;93183.47;4962076;28;20220;-66
2022/04/01 07:46:10;;;;;;;46.35;11.35;;;;;;;17.88;38.08;93167.72;4985627;28;20235;-65
2022/04/01 07:48:36;;;;;;;47.67;11.30;;;;;;;17.85;37.87;93163.72;4962825;28;20684;-64
2022/04/01 07:51:03;;;;;;;47.83;11.85;;;;;;;17.93;38.38;93167.81;4961786;28;20246;-67
2022/04/01 07:53:28;;;;;;;46.22;10.70;;;;;;;18.01;37.35;93172.72;4963310;28;20232;-66
2022/04/01 07:55:54;;;;;;;42.10;11.27;;;;;;;18.23;36.55;93156.00;4963558;28;20211;-66
2022/04/01 07:58:19;;;;;;;40.97;10.88;;;;;;;18.29;35.51;93147.06;4987842;28;20231;-65
2022/04/01 08:00:45;;;;;;;52.08;10.52;;;;;;;18.29;36.62;93157.72;4987160;28;20224;-66
2022/04/01 08:03:11;;;;;;;44.60;9.63;;;;;;;18.44;35.93;93168.59;4963830;28;20220;-66
2022/04/01 08:05:37;;;;;;;50.50;11.30;;;;;;;18.60;35.47;93206.03;4993436;28;20220;-67
2022/04/01 08:08:03;;;;;;;46.22;10.77;;;;;;;18.62;32.39;93179.97;4962856;28;20200;-65
2022/04/01 08:10:29;;;;;;;48.15;11.70;;;;;;;18.65;32.24;93190.13;4944959;28;20770;-66
2022/04/01 08:12:55;;;;;;;51.92;10.98;;;;;;;18.80;31.09;93203.69;4958313;28;20224;-66
2022/04/01 08:15:20;;;;;;;50.85;10.70;;;;;;;18.81;31.34;93170.66;4962204;28;20617;-66
2022/04/01 08:17:46;;;;;;;54.13;11.00;;;;;;;18.75;31.22;93189.50;4954013;28;20236;-66
2022/04/01 08:20:12;;;;;;;49.90;11.82;;;;;;;18.89;30.96;93174.75;4956767;28;20212;-66
2022/04/01 08:22:41;;;;;;;51.97;11.88;;;;;;;18.91;30.78;93164.69;4958021;28;20205;-65
2022/04/01 08:25:07;;;;;;;48.55;10.98;;;;;;;19.02;30.86;93160.28;4956015;28;20315;-66
2022/04/01 08:27:33;;;;;;;51.05;11.90;;;;;;;19.15;30.47;93155.34;4956066;28;20239;-66
2022/04/01 08:29:59;;;;;;;48.25;10.77;;;;;;;19.22;30.47;93171.16;4956935;28;20221;-65
2022/04/01 08:32:29;;;;;;;50.50;11.85;;;;;;;19.33;30.55;93161.41;4961638;28;20235;-65
2022/04/01 08:34:56;;;;;;;44.38;10.45;;;;;;;19.49;30.25;93154.38;4962702;28;20213;-66
2022/04/01 08:37:22;;;;;;;41.85;11.38;;;;;;;19.66;29.77;93143.59;4962502;28;20235;-65
2022/04/01 08:39:47;;;;;;;54.78;9.98;;;;;;;19.82;29.60;93116.81;4954918;28;20466;-65
2022/04/01 08:42:13;;;;;;;48.20;10.15;;;;;;;20.03;29.53;93125.78;4956786;28;20313;-65
2022/04/01 08:44:42;;;;;;;49.30;10.88;;;;;;;20.05;29.40;93123.69;4956733;28;20221;-65
2022/04/01 08:47:11;;;;;;;48.22;10.80;;;;;;;19.83;30.04;93126.44;4962507;28;20203;-67
2022/04/01 08:49:36;;;;;;;48.75;12.20;;;;;;;19.85;29.99;93126.19;4952587;28;20205;-66
2022/04/01 08:52:06;;;;;;;42.28;11.05;;;;;;;19.89;30.27;93143.28;4954075;28;20298;-64
2022/04/01 08:54:35;;;;;;;43.67;10.55;;;;;;;19.49;30.46;93101.88;4955394;28;20236;-64
2022/04/01 08:57:00;;;;;;;46.45;11.07;;;;;;;19.34;31.21;93115.03;4958239;28;20278;-64
2022/04/01 08:59:30;;;;;;;43.42;10.90;;;;;;;19.23;31.50;93084.03;4965337;28;20232;-64
2022/04/01 09:02:07;;;;;;;47.40;11.35;;;;;;;19.28;31.65;93086.75;4959283;28;20279;-65
2022/04/01 09:04:33;;;;;;;43.05;10.55;;;;;;;19.29;31.63;93083.03;4957417;28;20239;-65
2022/04/01 09:07:10;;;;;;;58.05;11.20;;;;;;;19.45;31.44;93079.44;4961426;28;20243;-64
2022/04/01 09:09:35;;;;;;;46.22;10.30;;;;;;;19.66;31.50;93091.09;4953601;28;20437;-66
2022/04/01 09:12:08;;;;;;;46.55;10.30;;;;;;;19.77;31.28;93083.97;4952245;28;20239;-64
2022/04/01 09:14:35;;;;;;;45.38;10.57;;;;;;;19.80;31.13;93091.47;4959924;28;20295;-66
2022/04/01 09:17:01;;;;;;;43.67;10.52;;;;;;;19.73;31.34;93088.25;4959014;28;20215;-65
2022/04/01 09:19:31;;;;;;;50.83;10.57;;;;;;;19.64;31.80;93087.06;4959530;28;20196;-64
2022/04/01 09:21:58;;;;;;;47.72;11.68;;;;;;;19.64;31.59;93071.06;4957451;28;20233;-65
2022/04/01 09:24:23;;;;;;;51.45;10.73;;;;;;;19.45;31.80;93059.97;4952259;28;20247;-65
2022/04/01 09:26:55;;;;;;;49.30;12.25;;;;;;;19.51;31.83;93059.78;4953386;28;20232;-68
2022/04/01 09:29:20;;;;;;;47.90;10.70;;;;;;;19.65;31.36;93048.69;4961055;28;20224;-64
2022/04/01 09:31:51;;;;;;;41.20;9.90;;;;;;;19.66;31.47;93053.78;4957755;28;20220;-63
2022/04/01 09:34:17;;;;;;;43.55;11.55;;;;;;;19.63;31.79;93046.25;4956588;28;20283;-64
2022/04/01 09:36:43;;;;;;;46.22;10.85;;;;;;;19.82;32.14;93063.47;4959006;28;20228;-63
2022/04/01 09:39:18;;;;;;;40.97;10.30;;;;;;;20.00;32.05;93061.47;4961440;28;20247;-62
2022/04/01 09:41:45;;;;;;;42.65;11.10;;;;;;;19.91;31.23;93042.47;4951349;28;20258;-63
2022/04/01 09:44:17;;;;;;;41.08;10.73;;;;;;;20.17;31.19;93058.63;4955462;28;20216;-63
2022/04/01 09:46:49;;;;;;;42.83;10.32;;;;;;;20.39;30.70;93058.47;4953633;28;20200;-67
2022/04/01 09:49:28;;;;;;;41.28;11.40;;;;;;;20.54;30.20;93071.94;4954029;28;20335;-64
2022/04/01 09:51:54;;;;;;;42.15;11.18;;;;;;;20.70;29.64;93076.25;4968828;28;20231;-67
2022/04/01 09:54:19;;;;;;;45.35;10.20;;;;;;;20.82;30.08;93083.25;4961396;28;20388;-68
2022/04/01 09:56:46;;;;;;;38.90;11.32;;;;;;;20.80;29.60;93062.16;4954475;28;20290;-64
2022/04/01 09:59:14;;;;;;;43.88;10.63;;;;;;;20.90;29.75;93056.00;4967482;28;20204;-64
2022/04/01 10:01:42;;;;;;;41.15;11.25;;;;;;;21.21;30.07;93069.47;4952904;28;20308;-68
2022/04/01 10:04:09;;;;;;;35.05;10.27;;;;;;;21.30;29.02;93079.38;4954009;28;20288;-68
2022/04/01 10:06:36;;;;;;;44.50;10.82;;;;;;;21.30;28.53;93079.38;4955690;28;20224;-65
2022/04/01 10:09:08;;;;;;;38.95;9.80;;;;;;;21.22;28.14;93081.75;4960802;28;20266;-65
2022/04/01 10:11:35;;;;;;;43.17;10.88;;;;;;;21.24;28.20;93042.19;4961277;28;20326;-63
2022/04/01 10:14:11;;;;;;;40.85;10.38;;;;;;;21.29;27.77;93074.28;4951621;28;20204;-63
2022/04/01 10:16:42;;;;;;;42.55;10.45;;;;;;;21.32;28.45;93069.19;4962496;28;20216;-66
2022/04/01 10:19:29;;;;;;;33.30;9.82;;;;;;;21.65;28.55;93056.44;4961692;28;20235;-65
2022/04/01 10:21:55;;;;;;;46.72;10.57;;;;;;;21.68;28.32;93061.25;4970489;28;20623;-60
2022/04/01 10:24:30;;;;;;;38.78;9.93;;;;;;;21.76;28.05;93046.53;4961432;28;20311;-62
2022/04/01 10:27:14;;;;;;;45.28;10.82;;;;;;;21.77;27.53;93042.78;4991478;28;20239;-65
2022/04/01 10:29:42;;;;;;;38.22;10.35;;;;;;;22.02;26.83;93063.34;4947658;28;20334;-67
2022/04/01 10:32:27;;;;;;;39.42;9.77;;;;;;;22.16;26.58;93060.91;4956852;28;20200;-62
2022/04/01 10:34:58;;;;;;;47.22;10.38;;;;;;;22.26;26.82;93057.44;4950855;28;20204;-67
2022/04/01 10:37:25;;;;;;;43.15;10.38;;;;;;;22.43;26.40;93071.31;4952348;28;20362;-64
2022/04/01 10:39:54;;;;;;;39.72;9.63;;;;;;;22.45;25.71;93059.28;4952632;28;20232;-64
2022/04/01 10:42:26;;;;;;;47.50;10.60;;;;;;;22.59;26.16;93058.69;4954473;28;20274;-63
2022/04/01 10:44:58;;;;;;;47.20;10.85;;;;;;;22.57;25.81;93044.75;4950619;28;20295;-63
2022/04/01 10:51:36;;;;;;;29.73;9.50;;;;;;;22.57;25.88;93082.25;4965975;28;20227;-68
2022/04/01 10:53:45;;;;;;;38.55;9.63;;;;;;;22.10;26.19;93089.56;4956252;28;20239;-63
2022/04/01 10:56:23;;;;;;;48.15;9.57;;;;;;;22.63;26.14;93060.53;4956783;28;20232;-64
2022/04/01 10:59:04;;;;;;;43.80;11.07;;;;;;;23.01;26.39;93065.47;4952422;28;20684;-69
2022/04/01 11:01:30;;;;;;;43.55;10.43;;;;;;;23.32;25.66;93041.97;4957598;28;20263;-66
2022/04/01 11:04:02;;;;;;;41.60;9.63;;;;;;;23.58;24.18;93026.50;4962179;28;20286;-67
2022/04/01 11:06:27;;;;;;;38.13;9.32;;;;;;;23.50;24.20;93019.06;4973216;28;20335;-66
2022/04/01 11:08:54;;;;;;;41.88;9.68;;;;;;;23.69;23.82;93003.06;4954028;28;20259;-66
2022/04/01 11:11:21;;;;;;;36.03;8.10;;;;;;;24.14;22.40;93009.13;4958074;28;20298;-66
2022/04/01 11:14:06;;;;;;;34.60;7.63;;;;;;;24.27;22.21;92986.94;4958541;28;20240;-65
2022/04/01 11:16:52;;;;;;;36.80;10.05;;;;;;;24.07;22.65;93025.53;4963968;28;20291;-66
2022/04/01 11:19:22;;;;;;;34.78;8.07;;;;;;;24.18;22.45;93015.50;4961261;28;20308;-66
2022/04/01 11:21:48;;;;;;;37.08;8.90;;;;;;;24.39;22.68;93005.34;4956826;28;20224;-63
2022/04/01 11:24:36;;;;;;;31.10;8.88;;;;;;;24.75;22.29;93010.28;4956790;28;20242;-65
2022/04/01 11:27:23;;;;;;;39.13;8.25;;;;;;;23.40;22.65;93024.50;4962879;28;20231;-64
2022/04/01 11:30:07;;;;;;;28.83;7.53;;;;;;;22.21;24.17;93026.13;4958253;28;20422;-65
2022/04/01 11:32:37;;;;;;;30.35;7.20;;;;;;;21.94;24.34;93029.91;4958589;28;20228;-64
2022/04/01 11:35:05;;;;;;;31.23;7.82;;;;;;;21.67;24.98;93030.19;4967683;28;20228;-65
2022/04/01 11:37:35;;;;;;;29.27;7.05;;;;;;;21.73;25.20;93023.78;4966337;28;20651;-64
2022/04/01 11:40:14;;;;;;;27.40;7.00;;;;;;;22.16;25.10;92996.66;4958749;28;20235;-64